Aeroporto :
LOGIN :

Iscrizione | Disclaimer

   EN    FR    IT 

 










Sommario :    VFR   VFR Marginale   IFR   IFR Intensivo   IFR Molto Intensivo
Visibilità : 
Base nubi : 
>= 8 km
>= 3000ft
5 / 8 km
1000 / 3000 ft
1500m / 5 km
500 / 1000 ft
800 / 1500m
200 / 500 ft
< 800m
< 200 ft
Simboli :   Temporali  Nebbia  Neve Forte  Precipitazioni Forti  Vento > 20 kt
SIGMETs :   Varie  Temporali  Ghiacco  Turbolenza  Onda orograficha  Ceneri Vulcaniche







- Altitudine del aeroporto : 277 ft
- Codice IATA : JER
- Carte del aeroporto


EGJJ - Jersey

ULTIMO METAR :
  • 221320Z 35006KT 300V030 9999 FEW023 21/14 Q1026

METARs OBSOLETI :
  • 221250Z 36004KT 290V070 9999 FEW023 22/14 Q1026
  • 221220Z VRB02KT 9999 FEW022 22/15 Q1026
  • 221150Z VRB04KT 9999 FEW022 21/14 Q1026
  • 221120Z 02005KT 320V040 9999 FEW023 21/15 Q1027
  • 221050Z 36003KT 300V100 9999 FEW010 21/14 Q1027

TAF TAF EGJJ
Valido dal 22 a 12 ore il 22 a 21 ore UTC


221059Z 2212/2221 34005KT 9999 FEW025
ATIS : +44 1534 498 073
Nessun NOTAM noto per questo aeroporto.



MetMap, La meteo Aeronautica in un colpo d'occhio ! - Copyright ORBIFLY Dicembre 2007 - Disclaimer

ORBIFLY MET'MAP TEAM :

Programmazione e sviluppo : Alexandra Zaïnal
Concezione e sviluppo : Baudouin d'Aumeries
Co-Programmazione e sviluppo : Marc-Olivier Méhu
Supporto tecnico e logistico : Manuel Goepfert
Aiuto per la traduzione : Arnaldo La Scala

Contatto : metmap@orbifly.com




FONTI E CREDITI :

   NOAA